sensor_id;sensor_type;location;lat;lon;timestamp;temperature;humidity
24262;DHT22;12385;51.412;5.540;2022-07-29T00:00:00;20.70;67.90
24262;DHT22;12385;51.412;5.540;2022-07-29T00:02:27;20.60;68.80
24262;DHT22;12385;51.412;5.540;2022-07-29T00:04:52;20.60;68.20
24262;DHT22;12385;51.412;5.540;2022-07-29T00:07:18;20.60;68.30
24262;DHT22;12385;51.412;5.540;2022-07-29T00:09:44;20.50;68.50
24262;DHT22;12385;51.412;5.540;2022-07-29T00:12:09;20.50;68.60
24262;DHT22;12385;51.412;5.540;2022-07-29T00:14:35;20.50;68.60
24262;DHT22;12385;51.412;5.540;2022-07-29T00:17:01;20.40;68.80
24262;DHT22;12385;51.412;5.540;2022-07-29T00:19:26;20.40;69.20
24262;DHT22;12385;51.412;5.540;2022-07-29T00:21:52;20.50;70.50
24262;DHT22;12385;51.412;5.540;2022-07-29T00:24:18;20.50;71.70
24262;DHT22;12385;51.412;5.540;2022-07-29T00:26:43;20.50;72.00
24262;DHT22;12385;51.412;5.540;2022-07-29T00:29:09;20.50;72.40
24262;DHT22;12385;51.412;5.540;2022-07-29T00:31:35;20.40;73.90
24262;DHT22;12385;51.412;5.540;2022-07-29T00:34:00;20.30;75.30
24262;DHT22;12385;51.412;5.540;2022-07-29T00:36:26;20.00;77.50
24262;DHT22;12385;51.412;5.540;2022-07-29T00:38:51;19.80;80.50
24262;DHT22;12385;51.412;5.540;2022-07-29T00:41:18;19.60;81.40
24262;DHT22;12385;51.412;5.540;2022-07-29T00:43:44;19.50;82.50
24262;DHT22;12385;51.412;5.540;2022-07-29T00:46:10;19.40;84.40
24262;DHT22;12385;51.412;5.540;2022-07-29T00:48:36;19.40;85.50
24262;DHT22;12385;51.412;5.540;2022-07-29T00:51:03;19.30;86.70
24262;DHT22;12385;51.412;5.540;2022-07-29T00:53:30;19.20;88.80
24262;DHT22;12385;51.412;5.540;2022-07-29T00:55:57;19.10;90.50
24262;DHT22;12385;51.412;5.540;2022-07-29T00:58:23;19.10;91.90
24262;DHT22;12385;51.412;5.540;2022-07-29T01:00:49;19.00;93.60
24262;DHT22;12385;51.412;5.540;2022-07-29T01:03:15;18.80;95.30
24262;DHT22;12385;51.412;5.540;2022-07-29T01:05:42;18.60;97.00
24262;DHT22;12385;51.412;5.540;2022-07-29T01:08:08;18.40;98.90
24262;DHT22;12385;51.412;5.540;2022-07-29T01:10:37;18.30;99.90
24262;DHT22;12385;51.412;5.540;2022-07-29T01:13:03;18.40;99.90
24262;DHT22;12385;51.412;5.540;2022-07-29T01:15:30;18.40;99.90
24262;DHT22;12385;51.412;5.540;2022-07-29T01:18:04;18.30;99.90
24262;DHT22;12385;51.412;5.540;2022-07-29T01:21:01;18.20;99.90
24262;DHT22;12385;51.412;5.540;2022-07-29T01:23:40;18.00;99.90
24262;DHT22;12385;51.412;5.540;2022-07-29T01:26:23;17.90;99.90
24262;DHT22;12385;51.412;5.540;2022-07-29T01:29:11;17.80;99.90
24262;DHT22;12385;51.412;5.540;2022-07-29T01:32:18;17.60;99.90
24262;DHT22;12385;51.412;5.540;2022-07-29T01:37:28;17.40;99.90
24262;DHT22;12385;51.412;5.540;2022-07-29T01:39:57;17.40;99.90
24262;DHT22;12385;51.412;5.540;2022-07-29T01:42:38;17.40;99.90
24262;DHT22;12385;51.412;5.540;2022-07-29T01:45:39;17.40;99.90
24262;DHT22;12385;51.412;5.540;2022-07-29T01:48:40;17.40;99.90
24262;DHT22;12385;51.412;5.540;2022-07-29T01:51:13;17.40;99.90
24262;DHT22;12385;51.412;5.540;2022-07-29T01:53:50;17.50;99.90
24262;DHT22;12385;51.412;5.540;2022-07-29T01:56:18;17.50;99.90
24262;DHT22;12385;51.412;5.540;2022-07-29T01:58:45;17.50;99.90
24262;DHT22;12385;51.412;5.540;2022-07-29T02:01:13;17.60;99.90
24262;DHT22;12385;51.412;5.540;2022-07-29T02:03:43;17.60;99.90
24262;DHT22;12385;51.412;5.540;2022-07-29T02:06:09;17.60;99.90
24262;DHT22;12385;51.412;5.540;2022-07-29T02:08:38;17.70;99.90
24262;DHT22;12385;51.412;5.540;2022-07-29T02:11:05;17.70;99.90
24262;DHT22;12385;51.412;5.540;2022-07-29T02:13:34;17.70;99.90
24262;DHT22;12385;51.412;5.540;2022-07-29T02:16:02;17.70;99.90
24262;DHT22;12385;51.412;5.540;2022-07-29T02:18:30;17.70;99.90
24262;DHT22;12385;51.412;5.540;2022-07-29T02:20:58;17.70;99.90
24262;DHT22;12385;51.412;5.540;2022-07-29T02:23:25;17.80;99.90
24262;DHT22;12385;51.412;5.540;2022-07-29T02:25:53;17.70;99.90
24262;DHT22;12385;51.412;5.540;2022-07-29T02:28:20;17.70;99.90
24262;DHT22;12385;51.412;5.540;2022-07-29T02:30:47;17.60;99.90
24262;DHT22;12385;51.412;5.540;2022-07-29T02:33:15;17.60;99.90
24262;DHT22;12385;51.412;5.540;2022-07-29T02:35:43;17.50;99.90
24262;DHT22;12385;51.412;5.540;2022-07-29T02:38:12;17.50;99.90
24262;DHT22;12385;51.412;5.540;2022-07-29T02:41:01;17.50;99.90
24262;DHT22;12385;51.412;5.540;2022-07-29T02:43:29;17.60;99.90
24262;DHT22;12385;51.412;5.540;2022-07-29T02:45:56;17.50;99.90
24262;DHT22;12385;51.412;5.540;2022-07-29T02:48:31;17.60;99.90
24262;DHT22;12385;51.412;5.540;2022-07-29T02:51:07;17.60;99.90
24262;DHT22;12385;51.412;5.540;2022-07-29T02:53:35;17.60;99.90
24262;DHT22;12385;51.412;5.540;2022-07-29T02:56:07;17.60;99.90
24262;DHT22;12385;51.412;5.540;2022-07-29T02:58:54;17.60;99.90
24262;DHT22;12385;51.412;5.540;2022-07-29T03:01:24;17.50;99.90
24262;DHT22;12385;51.412;5.540;2022-07-29T03:03:53;17.40;99.90
24262;DHT22;12385;51.412;5.540;2022-07-29T03:06:21;17.40;99.90
24262;DHT22;12385;51.412;5.540;2022-07-29T03:08:47;17.40;99.90
24262;DHT22;12385;51.412;5.540;2022-07-29T03:11:14;17.40;99.90
24262;DHT22;12385;51.412;5.540;2022-07-29T03:13:40;17.40;99.90
24262;DHT22;12385;51.412;5.540;2022-07-29T03:16:08;17.40;99.90
24262;DHT22;12385;51.412;5.540;2022-07-29T03:18:34;17.50;99.90
24262;DHT22;12385;51.412;5.540;2022-07-29T03:21:00;17.50;99.90
24262;DHT22;12385;51.412;5.540;2022-07-29T03:23:25;17.50;99.90
24262;DHT22;12385;51.412;5.540;2022-07-29T03:25:53;17.50;99.90
24262;DHT22;12385;51.412;5.540;2022-07-29T03:28:19;17.50;99.90
24262;DHT22;12385;51.412;5.540;2022-07-29T03:30:45;17.50;99.90
24262;DHT22;12385;51.412;5.540;2022-07-29T03:33:11;17.50;99.90
24262;DHT22;12385;51.412;5.540;2022-07-29T03:35:36;17.40;99.90
24262;DHT22;12385;51.412;5.540;2022-07-29T03:38:02;17.40;99.90
24262;DHT22;12385;51.412;5.540;2022-07-29T03:40:32;17.40;99.90
24262;DHT22;12385;51.412;5.540;2022-07-29T03:43:00;17.40;99.90
24262;DHT22;12385;51.412;5.540;2022-07-29T03:45:28;17.40;99.90
24262;DHT22;12385;51.412;5.540;2022-07-29T03:48:01;17.40;99.90
24262;DHT22;12385;51.412;5.540;2022-07-29T03:50:28;17.30;99.90
24262;DHT22;12385;51.412;5.540;2022-07-29T03:52:55;17.30;99.90
24262;DHT22;12385;51.412;5.540;2022-07-29T03:55:21;17.30;99.90
24262;DHT22;12385;51.412;5.540;2022-07-29T03:57:48;17.30;99.90
24262;DHT22;12385;51.412;5.540;2022-07-29T04:00:15;17.30;99.90
24262;DHT22;12385;51.412;5.540;2022-07-29T04:02:42;17.20;99.90
24262;DHT22;12385;51.412;5.540;2022-07-29T04:05:12;17.20;99.90
24262;DHT22;12385;51.412;5.540;2022-07-29T04:07:38;17.20;99.90
24262;DHT22;12385;51.412;5.540;2022-07-29T04:10:04;17.10;99.90
24262;DHT22;12385;51.412;5.540;2022-07-29T04:12:30;17.10;99.90
24262;DHT22;12385;51.412;5.540;2022-07-29T04:14:56;17.10;99.90
24262;DHT22;12385;51.412;5.540;2022-07-29T04:17:21;17.00;99.90
24262;DHT22;12385;51.412;5.540;2022-07-29T04:19:47;17.00;99.90
24262;DHT22;12385;51.412;5.540;2022-07-29T04:22:12;16.90;99.90
24262;DHT22;12385;51.412;5.540;2022-07-29T04:24:38;16.90;99.90
24262;DHT22;12385;51.412;5.540;2022-07-29T04:27:03;16.90;99.90
24262;DHT22;12385;51.412;5.540;2022-07-29T04:29:29;16.80;99.90
24262;DHT22;12385;51.412;5.540;2022-07-29T04:31:54;16.80;99.90
24262;DHT22;12385;51.412;5.540;2022-07-29T04:34:20;16.80;99.90
24262;DHT22;12385;51.412;5.540;2022-07-29T04:36:46;16.90;99.90
24262;DHT22;12385;51.412;5.540;2022-07-29T04:39:11;16.80;99.90
24262;DHT22;12385;51.412;5.540;2022-07-29T04:41:37;16.90;99.90
24262;DHT22;12385;51.412;5.540;2022-07-29T04:44:03;16.90;99.90
24262;DHT22;12385;51.412;5.540;2022-07-29T04:46:31;16.90;99.90
24262;DHT22;12385;51.412;5.540;2022-07-29T04:48:56;16.90;99.90
24262;DHT22;12385;51.412;5.540;2022-07-29T04:51:22;16.90;99.90
24262;DHT22;12385;51.412;5.540;2022-07-29T04:53:47;16.90;99.90
24262;DHT22;12385;51.412;5.540;2022-07-29T04:56:13;17.00;99.90
24262;DHT22;12385;51.412;5.540;2022-07-29T04:58:39;16.90;99.90
24262;DHT22;12385;51.412;5.540;2022-07-29T05:01:04;17.00;99.90
24262;DHT22;12385;51.412;5.540;2022-07-29T05:03:30;17.00;99.90
24262;DHT22;12385;51.412;5.540;2022-07-29T05:05:56;17.00;99.90
24262;DHT22;12385;51.412;5.540;2022-07-29T05:08:21;17.00;99.90
24262;DHT22;12385;51.412;5.540;2022-07-29T05:10:47;17.10;99.90
24262;DHT22;12385;51.412;5.540;2022-07-29T05:13:13;17.00;99.90
24262;DHT22;12385;51.412;5.540;2022-07-29T05:15:38;17.00;99.90
24262;DHT22;12385;51.412;5.540;2022-07-29T05:18:05;17.00;99.90
24262;DHT22;12385;51.412;5.540;2022-07-29T05:20:31;17.00;99.90
24262;DHT22;12385;51.412;5.540;2022-07-29T05:22:58;16.90;99.90
24262;DHT22;12385;51.412;5.540;2022-07-29T05:25:25;16.90;99.90
24262;DHT22;12385;51.412;5.540;2022-07-29T05:27:51;16.80;99.90
24262;DHT22;12385;51.412;5.540;2022-07-29T05:30:17;16.70;99.90
24262;DHT22;12385;51.412;5.540;2022-07-29T05:32:42;16.70;99.90
24262;DHT22;12385;51.412;5.540;2022-07-29T05:35:09;16.70;99.90
24262;DHT22;12385;51.412;5.540;2022-07-29T05:37:34;16.70;99.90
24262;DHT22;12385;51.412;5.540;2022-07-29T05:40:01;16.60;99.90
24262;DHT22;12385;51.412;5.540;2022-07-29T05:42:27;16.60;99.90
24262;DHT22;12385;51.412;5.540;2022-07-29T05:44:53;16.60;99.90
24262;DHT22;12385;51.412;5.540;2022-07-29T05:47:18;16.60;99.90
24262;DHT22;12385;51.412;5.540;2022-07-29T05:49:44;16.60;99.90
24262;DHT22;12385;51.412;5.540;2022-07-29T05:52:10;16.60;99.90
24262;DHT22;12385;51.412;5.540;2022-07-29T05:54:36;16.60;99.90
24262;DHT22;12385;51.412;5.540;2022-07-29T05:57:03;16.60;99.90
24262;DHT22;12385;51.412;5.540;2022-07-29T05:59:28;16.60;99.90
24262;DHT22;12385;51.412;5.540;2022-07-29T06:01:55;16.60;99.90
24262;DHT22;12385;51.412;5.540;2022-07-29T06:04:22;16.60;99.90
24262;DHT22;12385;51.412;5.540;2022-07-29T06:06:47;16.50;99.90
24262;DHT22;12385;51.412;5.540;2022-07-29T06:09:13;16.60;99.90
24262;DHT22;12385;51.412;5.540;2022-07-29T06:11:39;16.60;99.90
24262;DHT22;12385;51.412;5.540;2022-07-29T06:14:04;16.60;99.90
24262;DHT22;12385;51.412;5.540;2022-07-29T06:16:30;16.60;99.90
24262;DHT22;12385;51.412;5.540;2022-07-29T06:18:56;16.70;99.90
24262;DHT22;12385;51.412;5.540;2022-07-29T06:21:21;16.70;99.90
24262;DHT22;12385;51.412;5.540;2022-07-29T06:23:47;16.70;99.90
24262;DHT22;12385;51.412;5.540;2022-07-29T06:26:12;16.80;99.90
24262;DHT22;12385;51.412;5.540;2022-07-29T06:28:38;16.80;99.90
24262;DHT22;12385;51.412;5.540;2022-07-29T06:31:05;16.70;99.90
24262;DHT22;12385;51.412;5.540;2022-07-29T06:33:30;16.70;99.90
24262;DHT22;12385;51.412;5.540;2022-07-29T06:35:56;16.70;99.90
24262;DHT22;12385;51.412;5.540;2022-07-29T06:38:22;16.70;99.90
24262;DHT22;12385;51.412;5.540;2022-07-29T06:40:47;16.70;99.90
24262;DHT22;12385;51.412;5.540;2022-07-29T06:43:31;16.70;99.90
24262;DHT22;12385;51.412;5.540;2022-07-29T06:46:00;16.70;99.90
24262;DHT22;12385;51.412;5.540;2022-07-29T06:48:27;16.70;99.90
24262;DHT22;12385;51.412;5.540;2022-07-29T06:50:52;16.80;99.90
24262;DHT22;12385;51.412;5.540;2022-07-29T06:53:18;16.90;99.90
24262;DHT22;12385;51.412;5.540;2022-07-29T06:55:43;16.90;99.90
24262;DHT22;12385;51.412;5.540;2022-07-29T06:58:09;16.90;99.90
24262;DHT22;12385;51.412;5.540;2022-07-29T07:00:35;16.90;99.90
24262;DHT22;12385;51.412;5.540;2022-07-29T07:03:01;17.00;99.90
24262;DHT22;12385;51.412;5.540;2022-07-29T07:05:27;17.00;99.90
24262;DHT22;12385;51.412;5.540;2022-07-29T07:07:52;17.00;99.90
24262;DHT22;12385;51.412;5.540;2022-07-29T07:10:18;17.00;99.90
24262;DHT22;12385;51.412;5.540;2022-07-29T07:12:43;17.00;99.90
24262;DHT22;12385;51.412;5.540;2022-07-29T07:15:09;17.10;99.90
24262;DHT22;12385;51.412;5.540;2022-07-29T07:17:35;17.00;99.90
24262;DHT22;12385;51.412;5.540;2022-07-29T07:20:00;17.10;99.90
24262;DHT22;12385;51.412;5.540;2022-07-29T07:22:26;17.10;99.90
24262;DHT22;12385;51.412;5.540;2022-07-29T07:24:52;17.10;99.90
24262;DHT22;12385;51.412;5.540;2022-07-29T07:27:17;17.20;99.90
24262;DHT22;12385;51.412;5.540;2022-07-29T07:29:43;17.30;99.90
24262;DHT22;12385;51.412;5.540;2022-07-29T07:32:08;17.40;99.90
24262;DHT22;12385;51.412;5.540;2022-07-29T07:34:34;17.50;99.90
24262;DHT22;12385;51.412;5.540;2022-07-29T07:36:59;17.60;99.90
24262;DHT22;12385;51.412;5.540;2022-07-29T07:39:25;17.70;99.90
24262;DHT22;12385;51.412;5.540;2022-07-29T07:41:52;17.90;99.90
24262;DHT22;12385;51.412;5.540;2022-07-29T07:44:17;17.90;99.90
24262;DHT22;12385;51.412;5.540;2022-07-29T07:46:43;18.00;99.90
24262;DHT22;12385;51.412;5.540;2022-07-29T07:49:10;18.00;99.90
24262;DHT22;12385;51.412;5.540;2022-07-29T07:51:36;18.10;99.90
24262;DHT22;12385;51.412;5.540;2022-07-29T07:54:01;18.10;99.90
24262;DHT22;12385;51.412;5.540;2022-07-29T07:56:27;18.10;99.90
24262;DHT22;12385;51.412;5.540;2022-07-29T07:58:53;18.20;99.90
24262;DHT22;12385;51.412;5.540;2022-07-29T08:01:18;18.30;99.90
24262;DHT22;12385;51.412;5.540;2022-07-29T08:03:48;18.40;99.90
24262;DHT22;12385;51.412;5.540;2022-07-29T08:06:14;18.40;99.90
24262;DHT22;12385;51.412;5.540;2022-07-29T08:08:40;18.50;99.90
24262;DHT22;12385;51.412;5.540;2022-07-29T08:11:06;18.60;99.90
24262;DHT22;12385;51.412;5.540;2022-07-29T08:13:32;18.70;99.90
24262;DHT22;12385;51.412;5.540;2022-07-29T08:15:59;18.70;99.90
24262;DHT22;12385;51.412;5.540;2022-07-29T08:18:28;18.70;99.90
24262;DHT22;12385;51.412;5.540;2022-07-29T08:20:54;18.80;99.90
24262;DHT22;12385;51.412;5.540;2022-07-29T08:23:21;18.80;99.90
24262;DHT22;12385;51.412;5.540;2022-07-29T08:25:48;18.80;99.90
24262;DHT22;12385;51.412;5.540;2022-07-29T08:28:14;18.90;99.90
24262;DHT22;12385;51.412;5.540;2022-07-29T08:30:39;19.00;99.90
24262;DHT22;12385;51.412;5.540;2022-07-29T08:33:05;19.10;99.90
24262;DHT22;12385;51.412;5.540;2022-07-29T08:35:32;19.10;99.90
24262;DHT22;12385;51.412;5.540;2022-07-29T08:37:57;19.20;99.90
24262;DHT22;12385;51.412;5.540;2022-07-29T08:40:23;19.30;99.90
24262;DHT22;12385;51.412;5.540;2022-07-29T08:42:49;19.50;99.90
24262;DHT22;12385;51.412;5.540;2022-07-29T08:45:15;19.50;99.90
24262;DHT22;12385;51.412;5.540;2022-07-29T08:47:43;19.60;99.90
24262;DHT22;12385;51.412;5.540;2022-07-29T08:50:10;19.70;99.90
24262;DHT22;12385;51.412;5.540;2022-07-29T08:52:38;19.70;99.90
24262;DHT22;12385;51.412;5.540;2022-07-29T08:55:08;19.70;99.90
24262;DHT22;12385;51.412;5.540;2022-07-29T08:57:35;19.80;99.90
24262;DHT22;12385;51.412;5.540;2022-07-29T09:00:06;19.80;99.90
24262;DHT22;12385;51.412;5.540;2022-07-29T09:02:37;19.80;99.90
24262;DHT22;12385;51.412;5.540;2022-07-29T09:05:04;19.80;99.90
24262;DHT22;12385;51.412;5.540;2022-07-29T09:07:30;19.90;99.90
24262;DHT22;12385;51.412;5.540;2022-07-29T09:09:56;20.00;99.90
24262;DHT22;12385;51.412;5.540;2022-07-29T09:12:22;20.10;99.90
24262;DHT22;12385;51.412;5.540;2022-07-29T09:14:50;20.10;99.90
24262;DHT22;12385;51.412;5.540;2022-07-29T09:17:16;20.20;99.90
24262;DHT22;12385;51.412;5.540;2022-07-29T09:19:43;20.20;99.90
24262;DHT22;12385;51.412;5.540;2022-07-29T09:22:09;20.20;99.90
24262;DHT22;12385;51.412;5.540;2022-07-29T09:24:43;20.30;99.90
24262;DHT22;12385;51.412;5.540;2022-07-29T09:27:12;20.40;99.90
24262;DHT22;12385;51.412;5.540;2022-07-29T09:29:43;20.40;99.90
24262;DHT22;12385;51.412;5.540;2022-07-29T09:32:09;20.50;99.90
24262;DHT22;12385;51.412;5.540;2022-07-29T09:34:37;20.50;99.90
24262;DHT22;12385;51.412;5.540;2022-07-29T09:37:03;20.60;99.90
24262;DHT22;12385;51.412;5.540;2022-07-29T09:42:02;20.70;99.90
24262;DHT22;12385;51.412;5.540;2022-07-29T09:44:42;20.70;99.90
24262;DHT22;12385;51.412;5.540;2022-07-29T09:47:07;20.80;99.90
24262;DHT22;12385;51.412;5.540;2022-07-29T09:49:35;20.90;99.90
24262;DHT22;12385;51.412;5.540;2022-07-29T09:52:03;20.90;99.90
24262;DHT22;12385;51.412;5.540;2022-07-29T09:54:29;21.00;99.90
24262;DHT22;12385;51.412;5.540;2022-07-29T09:56:59;21.10;99.90
24262;DHT22;12385;51.412;5.540;2022-07-29T09:59:27;21.20;99.90
24262;DHT22;12385;51.412;5.540;2022-07-29T10:01:53;21.30;99.90
24262;DHT22;12385;51.412;5.540;2022-07-29T10:04:19;21.30;99.90
24262;DHT22;12385;51.412;5.540;2022-07-29T10:07:02;21.40;99.90
24262;DHT22;12385;51.412;5.540;2022-07-29T10:09:28;21.40;99.90
24262;DHT22;12385;51.412;5.540;2022-07-29T10:12:10;21.50;99.90
24262;DHT22;12385;51.412;5.540;2022-07-29T10:14:40;21.50;99.90
24262;DHT22;12385;51.412;5.540;2022-07-29T10:17:07;21.60;99.90
24262;DHT22;12385;51.412;5.540;2022-07-29T10:19:34;21.70;99.90
24262;DHT22;12385;51.412;5.540;2022-07-29T10:22:05;21.80;99.90
24262;DHT22;12385;51.412;5.540;2022-07-29T10:24:32;22.00;99.70
24262;DHT22;12385;51.412;5.540;2022-07-29T10:27:01;22.10;99.80
24262;DHT22;12385;51.412;5.540;2022-07-29T10:29:27;22.20;99.60
24262;DHT22;12385;51.412;5.540;2022-07-29T10:43:34;22.50;97.50
24262;DHT22;12385;51.412;5.540;2022-07-29T10:46:03;22.60;97.10
24262;DHT22;12385;51.412;5.540;2022-07-29T10:48:29;22.70;97.00
24262;DHT22;12385;51.412;5.540;2022-07-29T10:51:00;22.70;96.60
24262;DHT22;12385;51.412;5.540;2022-07-29T10:53:51;22.80;96.80
24262;DHT22;12385;51.412;5.540;2022-07-29T10:56:28;22.90;95.90
24262;DHT22;12385;51.412;5.540;2022-07-29T11:01:46;23.10;94.80
24262;DHT22;12385;51.412;5.540;2022-07-29T11:04:12;23.10;94.30
24262;DHT22;12385;51.412;5.540;2022-07-29T11:07:08;23.20;94.50
24262;DHT22;12385;51.412;5.540;2022-07-29T11:09:34;23.30;94.50
24262;DHT22;12385;51.412;5.540;2022-07-29T11:12:00;23.30;93.80
24262;DHT22;12385;51.412;5.540;2022-07-29T11:17:22;23.50;92.90
24262;DHT22;12385;51.412;5.540;2022-07-29T11:19:48;23.70;93.00
24262;DHT22;12385;51.412;5.540;2022-07-29T11:22:32;23.90;92.50
24262;DHT22;12385;51.412;5.540;2022-07-29T11:25:14;24.10;92.80
24262;DHT22;12385;51.412;5.540;2022-07-29T11:27:40;24.20;92.30
24262;DHT22;12385;51.412;5.540;2022-07-29T11:30:06;24.30;91.00
24262;DHT22;12385;51.412;5.540;2022-07-29T11:32:43;24.40;90.80
24262;DHT22;12385;51.412;5.540;2022-07-29T11:35:21;24.50;90.30
24262;DHT22;12385;51.412;5.540;2022-07-29T11:38:26;24.60;88.60
24262;DHT22;12385;51.412;5.540;2022-07-29T11:43:54;24.70;86.70
24262;DHT22;12385;51.412;5.540;2022-07-29T11:46:51;24.80;85.60
24262;DHT22;12385;51.412;5.540;2022-07-29T11:49:21;24.90;85.20
24262;DHT22;12385;51.412;5.540;2022-07-29T11:51:57;25.10;85.80
24262;DHT22;12385;51.412;5.540;2022-07-29T11:54:34;25.30;86.60
24262;DHT22;12385;51.412;5.540;2022-07-29T11:57:00;25.50;86.90
24262;DHT22;12385;51.412;5.540;2022-07-29T11:59:26;25.70;85.90
24262;DHT22;12385;51.412;5.540;2022-07-29T12:01:53;25.90;83.00
24262;DHT22;12385;51.412;5.540;2022-07-29T12:04:19;26.00;81.20
24262;DHT22;12385;51.412;5.540;2022-07-29T12:06:52;26.10;81.10
24262;DHT22;12385;51.412;5.540;2022-07-29T12:09:18;26.20;80.00
24262;DHT22;12385;51.412;5.540;2022-07-29T12:11:45;26.20;80.20
24262;DHT22;12385;51.412;5.540;2022-07-29T12:16:50;26.60;77.80
24262;DHT22;12385;51.412;5.540;2022-07-29T12:19:16;26.70;74.50
24262;DHT22;12385;51.412;5.540;2022-07-29T12:21:49;26.80;74.10
24262;DHT22;12385;51.412;5.540;2022-07-29T12:24:16;26.90;72.50
24262;DHT22;12385;51.412;5.540;2022-07-29T12:26:52;27.00;71.70
24262;DHT22;12385;51.412;5.540;2022-07-29T12:29:18;27.20;71.60
24262;DHT22;12385;51.412;5.540;2022-07-29T12:31:45;27.30;72.00
24262;DHT22;12385;51.412;5.540;2022-07-29T12:34:15;27.50;70.30
24262;DHT22;12385;51.412;5.540;2022-07-29T12:36:42;27.50;69.80
24262;DHT22;12385;51.412;5.540;2022-07-29T12:39:08;27.50;69.60
24262;DHT22;12385;51.412;5.540;2022-07-29T12:41:35;27.50;68.20
24262;DHT22;12385;51.412;5.540;2022-07-29T12:44:02;27.60;68.90
24262;DHT22;12385;51.412;5.540;2022-07-29T12:46:28;27.80;70.20
24262;DHT22;12385;51.412;5.540;2022-07-29T12:48:54;28.00;70.30
24262;DHT22;12385;51.412;5.540;2022-07-29T12:51:39;28.30;68.30
24262;DHT22;12385;51.412;5.540;2022-07-29T12:54:09;28.60;68.00
24262;DHT22;12385;51.412;5.540;2022-07-29T12:56:39;28.80;68.00
24262;DHT22;12385;51.412;5.540;2022-07-29T12:59:22;29.10;65.50
24262;DHT22;12385;51.412;5.540;2022-07-29T13:01:52;29.50;63.70
24262;DHT22;12385;51.412;5.540;2022-07-29T13:04:28;29.50;64.10
24262;DHT22;12385;51.412;5.540;2022-07-29T13:07:23;29.40;61.60
24262;DHT22;12385;51.412;5.540;2022-07-29T13:09:49;29.10;62.00
24262;DHT22;12385;51.412;5.540;2022-07-29T13:12:15;28.70;62.70
24262;DHT22;12385;51.412;5.540;2022-07-29T13:14:42;28.60;62.50
24262;DHT22;12385;51.412;5.540;2022-07-29T13:17:11;28.40;61.70
24262;DHT22;12385;51.412;5.540;2022-07-29T13:19:42;28.60;61.00
24262;DHT22;12385;51.412;5.540;2022-07-29T13:22:18;29.00;59.80
24262;DHT22;12385;51.412;5.540;2022-07-29T13:24:47;29.20;57.60
24262;DHT22;12385;51.412;5.540;2022-07-29T13:27:15;29.30;57.40
24262;DHT22;12385;51.412;5.540;2022-07-29T13:29:41;29.40;57.10
24262;DHT22;12385;51.412;5.540;2022-07-29T13:32:06;29.40;58.00
24262;DHT22;12385;51.412;5.540;2022-07-29T13:34:32;29.60;58.00
24262;DHT22;12385;51.412;5.540;2022-07-29T13:36:58;30.00;57.60
24262;DHT22;12385;51.412;5.540;2022-07-29T13:39:23;30.50;56.00
24262;DHT22;12385;51.412;5.540;2022-07-29T13:41:49;31.00;54.70
24262;DHT22;12385;51.412;5.540;2022-07-29T13:44:15;31.60;54.20
24262;DHT22;12385;51.412;5.540;2022-07-29T13:46:40;32.20;51.20
24262;DHT22;12385;51.412;5.540;2022-07-29T13:49:06;32.20;49.60
24262;DHT22;12385;51.412;5.540;2022-07-29T13:51:31;32.00;50.00
24262;DHT22;12385;51.412;5.540;2022-07-29T13:53:57;32.10;49.30
24262;DHT22;12385;51.412;5.540;2022-07-29T13:56:23;32.40;48.50
24262;DHT22;12385;51.412;5.540;2022-07-29T13:58:48;32.90;48.00
24262;DHT22;12385;51.412;5.540;2022-07-29T14:01:14;33.40;46.70
24262;DHT22;12385;51.412;5.540;2022-07-29T14:03:40;33.80;45.10
24262;DHT22;12385;51.412;5.540;2022-07-29T14:06:08;33.70;45.30
24262;DHT22;12385;51.412;5.540;2022-07-29T14:08:34;33.50;45.20
24262;DHT22;12385;51.412;5.540;2022-07-29T14:10:59;33.00;45.20
24262;DHT22;12385;51.412;5.540;2022-07-29T14:13:25;32.40;45.80
24262;DHT22;12385;51.412;5.540;2022-07-29T14:15:50;31.90;46.40
24262;DHT22;12385;51.412;5.540;2022-07-29T14:18:16;31.40;47.30
24262;DHT22;12385;51.412;5.540;2022-07-29T14:20:43;30.80;47.80
24262;DHT22;12385;51.412;5.540;2022-07-29T14:23:08;30.40;47.70
24262;DHT22;12385;51.412;5.540;2022-07-29T14:25:34;30.20;48.00
24262;DHT22;12385;51.412;5.540;2022-07-29T14:27:59;30.30;47.70
24262;DHT22;12385;51.412;5.540;2022-07-29T14:30:25;30.70;48.40
24262;DHT22;12385;51.412;5.540;2022-07-29T14:32:50;31.10;48.00
24262;DHT22;12385;51.412;5.540;2022-07-29T14:35:16;31.80;47.10
24262;DHT22;12385;51.412;5.540;2022-07-29T14:37:42;32.20;46.50
24262;DHT22;12385;51.412;5.540;2022-07-29T14:40:08;32.50;45.20
24262;DHT22;12385;51.412;5.540;2022-07-29T14:42:34;32.80;43.90
24262;DHT22;12385;51.412;5.540;2022-07-29T14:45:01;33.00;43.70
24262;DHT22;12385;51.412;5.540;2022-07-29T14:47:27;33.10;44.30
24262;DHT22;12385;51.412;5.540;2022-07-29T14:49:52;32.90;44.30
24262;DHT22;12385;51.412;5.540;2022-07-29T14:52:18;32.60;43.60
24262;DHT22;12385;51.412;5.540;2022-07-29T14:54:43;32.10;43.90
24262;DHT22;12385;51.412;5.540;2022-07-29T14:57:09;31.50;44.60
24262;DHT22;12385;51.412;5.540;2022-07-29T14:59:34;30.90;46.10
24262;DHT22;12385;51.412;5.540;2022-07-29T15:02:00;30.40;47.20
24262;DHT22;12385;51.412;5.540;2022-07-29T15:04:31;30.00;47.60
24262;DHT22;12385;51.412;5.540;2022-07-29T15:06:56;29.60;47.90
24262;DHT22;12385;51.412;5.540;2022-07-29T15:09:23;29.40;48.00
24262;DHT22;12385;51.412;5.540;2022-07-29T15:11:48;29.60;47.70
24262;DHT22;12385;51.412;5.540;2022-07-29T15:14:14;30.10;47.60
24262;DHT22;12385;51.412;5.540;2022-07-29T15:16:40;30.40;46.80
24262;DHT22;12385;51.412;5.540;2022-07-29T15:19:08;30.80;46.70
24262;DHT22;12385;51.412;5.540;2022-07-29T15:21:33;31.40;45.40
24262;DHT22;12385;51.412;5.540;2022-07-29T15:23:59;32.30;44.80
24262;DHT22;12385;51.412;5.540;2022-07-29T15:26:25;32.90;43.60
24262;DHT22;12385;51.412;5.540;2022-07-29T15:28:50;33.40;43.30
24262;DHT22;12385;51.412;5.540;2022-07-29T15:31:17;33.80;41.90
24262;DHT22;12385;51.412;5.540;2022-07-29T15:33:44;34.10;40.70
24262;DHT22;12385;51.412;5.540;2022-07-29T15:36:09;34.40;40.80
24262;DHT22;12385;51.412;5.540;2022-07-29T15:38:37;34.80;40.30
24262;DHT22;12385;51.412;5.540;2022-07-29T15:41:03;35.00;39.60
24262;DHT22;12385;51.412;5.540;2022-07-29T15:43:28;35.30;38.60
24262;DHT22;12385;51.412;5.540;2022-07-29T15:45:54;35.40;38.60
24262;DHT22;12385;51.412;5.540;2022-07-29T15:48:39;35.50;38.20
24262;DHT22;12385;51.412;5.540;2022-07-29T15:51:04;35.70;38.30
24262;DHT22;12385;51.412;5.540;2022-07-29T15:53:30;35.70;37.60
24262;DHT22;12385;51.412;5.540;2022-07-29T15:55:55;35.30;37.40
24262;DHT22;12385;51.412;5.540;2022-07-29T15:58:21;34.90;38.00
24262;DHT22;12385;51.412;5.540;2022-07-29T16:00:47;34.80;37.60
24262;DHT22;12385;51.412;5.540;2022-07-29T16:03:13;35.00;36.90